Time;durP1;ratioP1;P1;durP2;ratioP2;P2;SDS_P1;SDS_P2;PMS_P1;PMS_P2;Temp;Humidity;BMP_temperature;BMP_pressure;BME280_temperature;BME280_humidity;BME280_pressure;Samples;Min_cycle;Max_cycle;Signal;HPM_P1;HPM_P2
2023/04/08 00:01:12;;;;;;;11.68;9.05;;;3.90;99.90;;;;;;5112976;27;20031;-33
2023/04/08 00:03:38;;;;;;;11.52;8.70;;;3.90;99.90;;;;;;5111185;27;20396;-33
2023/04/08 00:06:04;;;;;;;11.80;8.73;;;4.00;99.90;;;;;;5122609;27;20035;-33
2023/04/08 00:08:31;;;;;;;12.25;9.15;;;3.90;99.90;;;;;;5116427;27;20134;-33
2023/04/08 00:10:56;;;;;;;14.13;8.95;;;3.80;99.90;;;;;;5093082;27;20185;-33
2023/04/08 00:13:22;;;;;;;12.15;9.25;;;3.80;99.90;;;;;;5110410;28;20118;-34
2023/04/08 00:15:48;;;;;;;11.55;8.45;;;3.80;99.90;;;;;;5109583;27;20407;-33
2023/04/08 00:18:15;;;;;;;13.65;9.90;;;3.70;99.90;;;;;;5114835;27;20043;-33
2023/04/08 00:20:42;;;;;;;12.30;9.48;;;3.70;99.90;;;;;;5113131;28;20087;-34
2023/04/08 00:23:08;;;;;;;11.25;8.65;;;3.70;99.90;;;;;;5108977;28;20039;-33
2023/04/08 00:25:34;;;;;;;12.38;9.85;;;3.70;99.90;;;;;;5111191;27;20035;-33
2023/04/08 00:27:59;;;;;;;12.25;8.75;;;3.60;99.90;;;;;;5109318;28;20453;-33
2023/04/08 00:30:26;;;;;;;14.02;9.82;;;3.60;99.90;;;;;;5111485;27;20069;-33
2023/04/08 00:32:53;;;;;;;13.10;9.60;;;3.50;99.90;;;;;;5110212;27;20067;-33
2023/04/08 00:35:18;;;;;;;12.68;9.90;;;3.50;99.90;;;;;;5114635;27;20555;-33
2023/04/08 00:37:44;;;;;;;12.75;9.95;;;3.40;99.90;;;;;;5105602;27;20110;-33
2023/04/08 00:40:11;;;;;;;15.52;10.02;;;3.40;99.90;;;;;;5113315;27;20437;-33
2023/04/08 00:42:37;;;;;;;12.88;9.15;;;3.40;99.90;;;;;;5117222;27;20047;-34
2023/04/08 00:45:03;;;;;;;11.30;10.07;;;3.30;99.90;;;;;;5116102;27;20087;-33
2023/04/08 00:47:29;;;;;;;10.13;8.45;;;3.30;99.90;;;;;;5115731;27;20042;-34
2023/04/08 00:49:55;;;;;;;11.73;8.95;;;3.40;99.90;;;;;;5112213;27;20035;-33
2023/04/08 00:52:20;;;;;;;14.98;10.05;;;3.30;99.90;;;;;;5113369;27;20028;-33
2023/04/08 00:54:46;;;;;;;12.75;10.15;;;3.30;99.90;;;;;;5114710;27;20031;-33
2023/04/08 00:57:12;;;;;;;12.60;9.40;;;3.30;99.90;;;;;;5134571;27;20035;-33
2023/04/08 00:59:38;;;;;;;14.30;10.65;;;3.20;99.90;;;;;;5111167;27;20134;-33
2023/04/08 01:02:28;;;;;;;14.90;10.05;;;3.20;99.90;;;;;;5104875;27;20047;-33
2023/04/08 01:05:13;;;;;;;13.82;10.60;;;3.10;99.90;;;;;;5111181;27;20031;-33
2023/04/08 01:07:46;;;;;;;14.98;10.02;;;3.10;99.90;;;;;;5129252;27;20067;-33
2023/04/08 01:10:33;;;;;;;13.93;10.43;;;3.10;99.90;;;;;;5115764;27;20080;-33
2023/04/08 01:13:04;;;;;;;11.43;9.38;;;3.20;99.90;;;;;;5108449;27;20454;-33
2023/04/08 01:15:34;;;;;;;14.63;10.55;;;3.00;99.90;;;;;;5122992;27;20049;-33
2023/04/08 01:18:01;;;;;;;12.48;9.73;;;3.00;99.90;;;;;;5116742;27;20110;-33
2023/04/08 01:20:28;;;;;;;12.73;9.85;;;3.10;99.90;;;;;;5114570;27;20046;-33
2023/04/08 01:23:07;;;;;;;14.30;10.13;;;3.00;99.90;;;;;;5113177;27;20045;-33
2023/04/08 01:25:35;;;;;;;12.15;9.95;;;3.00;99.90;;;;;;5119340;27;20039;-33
2023/04/08 01:28:08;;;;;;;13.88;10.52;;;2.90;99.90;;;;;;5109368;27;20139;-33
2023/04/08 01:30:36;;;;;;;13.88;10.13;;;2.80;99.90;;;;;;5104206;28;20036;-33
2023/04/08 01:33:04;;;;;;;14.23;10.30;;;2.90;99.90;;;;;;5115382;27;20515;-33
2023/04/08 01:35:30;;;;;;;14.90;11.30;;;2.80;99.90;;;;;;5107935;27;20039;-33
2023/04/08 01:37:57;;;;;;;14.57;12.20;;;2.80;99.90;;;;;;5118506;27;20038;-33
2023/04/08 01:40:23;;;;;;;18.55;12.18;;;2.80;99.90;;;;;;5127765;27;20076;-33
2023/04/08 01:42:50;;;;;;;16.08;11.32;;;2.90;99.90;;;;;;5130073;27;20439;-33
2023/04/08 01:45:17;;;;;;;16.38;11.10;;;2.90;99.90;;;;;;5116680;27;20031;-33
2023/04/08 01:47:46;;;;;;;14.43;10.75;;;2.80;99.90;;;;;;5104895;27;20032;-33
2023/04/08 01:50:13;;;;;;;17.17;12.45;;;2.90;99.90;;;;;;5107880;27;20042;-33
2023/04/08 01:52:40;;;;;;;14.55;11.85;;;2.80;99.90;;;;;;5109359;27;20092;-33
2023/04/08 01:55:06;;;;;;;14.20;11.35;;;2.80;99.90;;;;;;5113685;27;20427;-33
2023/04/08 01:57:36;;;;;;;15.02;12.32;;;2.90;99.90;;;;;;5110876;27;20070;-33
2023/04/08 02:00:07;;;;;;;17.70;12.88;;;2.80;99.90;;;;;;5122812;27;20040;-33
2023/04/08 02:02:35;;;;;;;17.50;11.75;;;2.70;99.90;;;;;;5106897;28;20043;-33
2023/04/08 02:05:00;;;;;;;16.65;12.30;;;2.80;99.90;;;;;;5105218;27;20615;-33
2023/04/08 02:07:26;;;;;;;17.17;12.75;;;2.70;99.90;;;;;;5114568;27;20126;-33
2023/04/08 02:09:52;;;;;;;20.70;14.40;;;2.80;99.90;;;;;;5106667;27;20114;-33
2023/04/08 02:12:18;;;;;;;18.33;13.38;;;2.70;99.90;;;;;;5114567;27;20395;-33
2023/04/08 02:14:44;;;;;;;16.60;12.77;;;2.70;99.90;;;;;;5114960;27;20034;-33
2023/04/08 02:17:23;;;;;;;19.10;13.73;;;2.80;99.90;;;;;;5119954;27;20043;-33
2023/04/08 02:20:02;;;;;;;17.67;13.10;;;2.70;99.90;;;;;;5113642;27;20123;-33
2023/04/08 02:22:36;;;;;;;16.67;13.32;;;2.60;99.90;;;;;;5103562;28;20039;-33
2023/04/08 02:25:04;;;;;;;19.95;14.13;;;2.60;99.90;;;;;;5098944;27;20523;-33
2023/04/08 02:27:34;;;;;;;18.45;13.73;;;2.70;99.90;;;;;;5106777;28;20043;-33
2023/04/08 02:30:05;;;;;;;16.63;13.32;;;2.70;99.90;;;;;;5099048;27;20092;-33
2023/04/08 02:32:32;;;;;;;21.33;14.13;;;2.50;99.90;;;;;;5108668;27;20086;-33
2023/04/08 02:35:03;;;;;;;19.13;14.00;;;2.70;99.90;;;;;;5110360;27;20100;-33
2023/04/08 02:37:32;;;;;;;18.27;13.60;;;2.70;99.90;;;;;;5105283;28;20044;-33
2023/04/08 02:39:58;;;;;;;19.58;13.80;;;2.60;99.90;;;;;;5113334;27;20036;-33
2023/04/08 02:42:23;;;;;;;19.50;13.52;;;2.50;99.90;;;;;;5119031;27;20043;-33
2023/04/08 02:44:51;;;;;;;17.58;13.57;;;2.50;99.90;;;;;;5109491;27;20138;-33
2023/04/08 02:47:16;;;;;;;19.88;14.27;;;2.60;99.90;;;;;;5113424;27;20445;-33
2023/04/08 02:49:42;;;;;;;18.85;13.57;;;2.50;99.90;;;;;;5113065;27;20110;-34
2023/04/08 02:52:08;;;;;;;20.00;13.88;;;2.40;99.90;;;;;;5106464;27;20063;-33
2023/04/08 02:54:34;;;;;;;20.38;14.07;;;2.40;99.90;;;;;;5109753;27;20070;-33
2023/04/08 02:57:00;;;;;;;18.40;14.00;;;2.50;99.90;;;;;;5108993;27;20039;-33
2023/04/08 02:59:25;;;;;;;19.92;14.13;;;2.40;99.90;;;;;;5119552;27;20050;-33
2023/04/08 03:01:51;;;;;;;22.10;15.32;;;2.40;99.90;;;;;;5117776;27;20039;-33
2023/04/08 03:04:16;;;;;;;18.58;14.10;;;2.50;99.90;;;;;;5113993;27;20077;-33
2023/04/08 03:06:42;;;;;;;19.65;14.07;;;2.50;99.90;;;;;;5111215;27;20660;-33
2023/04/08 03:09:08;;;;;;;22.17;16.13;;;2.50;99.90;;;;;;5105356;27;20106;-34
2023/04/08 03:11:34;;;;;;;20.35;14.77;;;2.50;99.90;;;;;;5110676;28;20134;-33
2023/04/08 03:14:00;;;;;;;22.45;15.82;;;2.30;99.90;;;;;;5113056;27;20093;-33
2023/04/08 03:16:25;;;;;;;20.92;15.90;;;2.40;99.90;;;;;;5113814;27;20400;-33
2023/04/08 03:18:51;;;;;;;18.70;14.00;;;2.20;99.90;;;;;;5112552;27;20480;-33
2023/04/08 03:21:17;;;;;;;20.48;15.23;;;2.20;99.90;;;;;;5109207;28;20027;-33
2023/04/08 03:23:44;;;;;;;21.60;15.23;;;2.30;99.90;;;;;;5117625;27;20071;-33
2023/04/08 03:26:10;;;;;;;21.48;16.17;;;2.40;99.90;;;;;;5110813;28;20039;-33
2023/04/08 03:28:36;;;;;;;19.98;14.65;;;2.20;99.90;;;;;;5113120;28;20484;-33
2023/04/08 03:31:04;;;;;;;21.33;15.30;;;2.20;99.90;;;;;;5114991;27;20429;-33
2023/04/08 03:33:30;;;;;;;23.13;17.33;;;2.30;99.90;;;;;;5109413;28;20039;-33
2023/04/08 03:35:56;;;;;;;24.63;17.08;;;2.30;99.90;;;;;;5111996;28;20046;-33
2023/04/08 03:38:22;;;;;;;20.20;15.50;;;2.20;99.90;;;;;;5112253;28;20035;-33
2023/04/08 03:40:47;;;;;;;20.80;14.88;;;2.10;99.90;;;;;;5117051;27;20039;-33
2023/04/08 03:43:13;;;;;;;22.27;16.23;;;2.10;99.90;;;;;;5107962;28;20032;-33
2023/04/08 03:45:39;;;;;;;22.20;15.65;;;2.20;99.90;;;;;;5120989;27;20030;-33
2023/04/08 03:48:06;;;;;;;21.65;15.52;;;2.10;99.90;;;;;;5114391;28;20042;-33
2023/04/08 03:50:32;;;;;;;20.75;16.35;;;2.10;99.90;;;;;;5109727;27;20035;-33
2023/04/08 03:52:58;;;;;;;28.55;17.08;;;2.00;99.90;;;;;;5137263;27;20126;-33
2023/04/08 03:55:23;;;;;;;23.17;17.08;;;2.10;99.90;;;;;;5112331;28;20488;-33
2023/04/08 03:57:49;;;;;;;26.45;17.92;;;2.10;99.90;;;;;;5113821;27;20094;-33
2023/04/08 04:00:15;;;;;;;26.65;17.73;;;2.10;99.90;;;;;;5118996;28;20042;-33
2023/04/08 04:02:41;;;;;;;23.20;16.08;;;2.10;99.90;;;;;;5130470;27;20032;-33
2023/04/08 04:05:07;;;;;;;22.58;16.27;;;1.90;99.90;;;;;;5107167;27;20032;-33
2023/04/08 04:07:33;;;;;;;25.25;18.23;;;1.90;99.90;;;;;;5113807;28;20043;-33
2023/04/08 04:09:58;;;;;;;27.63;18.42;;;2.10;99.90;;;;;;5104596;27;20027;-34
2023/04/08 04:12:25;;;;;;;26.73;17.90;;;1.90;99.90;;;;;;5112805;28;20035;-33
2023/04/08 04:14:51;;;;;;;26.33;18.10;;;2.10;99.90;;;;;;5111529;28;20381;-33
2023/04/08 04:17:16;;;;;;;27.52;19.58;;;2.00;99.90;;;;;;5106854;27;20034;-33
2023/04/08 04:19:42;;;;;;;29.40;19.00;;;2.10;99.90;;;;;;5107264;28;20042;-33
2023/04/08 04:22:09;;;;;;;25.90;17.58;;;2.10;99.90;;;;;;5106674;27;20095;-33
2023/04/08 04:24:34;;;;;;;29.27;18.38;;;2.10;99.90;;;;;;5115401;27;20043;-33
2023/04/08 04:27:00;;;;;;;28.85;18.95;;;2.20;99.90;;;;;;5104356;27;20039;-33
2023/04/08 04:29:26;;;;;;;27.10;18.65;;;2.10;99.90;;;;;;5127126;27;20030;-33
2023/04/08 04:31:52;;;;;;;32.05;19.60;;;2.30;99.90;;;;;;5118520;27;20039;-33
2023/04/08 04:34:17;;;;;;;26.55;18.55;;;2.30;99.90;;;;;;5119549;27;20023;-33
2023/04/08 04:36:43;;;;;;;28.45;19.67;;;2.40;99.90;;;;;;5118660;27;20039;-33
2023/04/08 04:39:09;;;;;;;25.88;18.20;;;2.40;99.90;;;;;;5113557;27;20039;-33
2023/04/08 04:41:39;;;;;;;26.50;18.55;;;2.50;99.90;;;;;;5117441;27;20077;-33
2023/04/08 04:44:05;;;;;;;29.52;19.10;;;2.30;99.90;;;;;;5108282;27;20036;-33
2023/04/08 04:46:31;;;;;;;27.77;18.83;;;2.40;99.90;;;;;;5126463;27;20038;-33
2023/04/08 04:48:57;;;;;;;32.47;20.13;;;2.30;99.90;;;;;;5118817;27;20031;-33
2023/04/08 04:51:22;;;;;;;31.55;19.80;;;2.30;99.90;;;;;;5116971;27;20039;-33
2023/04/08 04:53:48;;;;;;;32.03;19.50;;;2.20;99.90;;;;;;5113692;27;20484;-33
2023/04/08 04:56:14;;;;;;;28.88;19.70;;;2.40;99.90;;;;;;5109390;27;20114;-33
2023/04/08 04:58:40;;;;;;;29.38;19.77;;;2.40;99.90;;;;;;5117047;27;20119;-33
2023/04/08 05:01:08;;;;;;;35.17;20.15;;;2.40;99.90;;;;;;5088104;27;20051;-31
2023/04/08 05:03:34;;;;;;;29.55;18.10;;;2.50;99.90;;;;;;5107078;27;20067;-31
2023/04/08 05:06:00;;;;;;;31.67;19.30;;;2.30;99.90;;;;;;5133078;27;20066;-31
2023/04/08 05:08:26;;;;;;;29.15;19.23;;;2.40;99.90;;;;;;5117962;27;20031;-31
2023/04/08 05:10:54;;;;;;;31.45;20.67;;;2.40;99.90;;;;;;5129818;27;20119;-30
2023/04/08 05:13:20;;;;;;;41.83;23.88;;;2.50;99.90;;;;;;5116901;27;20047;-31
2023/04/08 05:15:45;;;;;;;30.20;20.52;;;2.50;99.90;;;;;;5117422;27;20374;-31
2023/04/08 05:18:11;;;;;;;30.13;19.63;;;2.80;99.90;;;;;;5110574;28;20042;-31
2023/04/08 05:20:37;;;;;;;26.52;18.25;;;2.80;99.90;;;;;;5096210;28;20032;-31
2023/04/08 05:23:03;;;;;;;33.00;20.20;;;2.80;99.90;;;;;;5112617;27;20074;-31
2023/04/08 05:25:29;;;;;;;31.17;18.88;;;2.90;99.90;;;;;;5113150;27;20031;-31
2023/04/08 05:27:56;;;;;;;33.28;21.23;;;3.20;99.90;;;;;;5116349;27;20039;-31
2023/04/08 05:30:22;;;;;;;36.63;23.20;;;3.10;99.90;;;;;;5093710;27;20035;-31
2023/04/08 05:32:47;;;;;;;32.97;21.65;;;3.30;99.90;;;;;;5102115;27;20077;-31
2023/04/08 05:35:13;;;;;;;32.88;20.70;;;3.30;99.90;;;;;;5116168;27;20491;-32
2023/04/08 05:37:39;;;;;;;36.70;23.38;;;3.60;99.90;;;;;;5105367;27;20083;-31
2023/04/08 05:40:06;;;;;;;32.42;22.15;;;3.50;99.90;;;;;;5125177;27;20541;-31
2023/04/08 05:42:32;;;;;;;30.75;20.92;;;3.80;99.90;;;;;;5117613;27;20041;-31
2023/04/08 05:44:58;;;;;;;34.95;21.80;;;3.70;99.90;;;;;;5105063;28;20485;-30
2023/04/08 05:47:23;;;;;;;32.85;20.92;;;3.60;99.90;;;;;;5086392;27;20560;-32
2023/04/08 05:49:49;;;;;;;33.38;20.50;;;3.70;99.90;;;;;;5134108;27;20117;-32
2023/04/08 05:52:16;;;;;;;32.30;20.48;;;3.70;99.90;;;;;;5113216;27;20043;-31
2023/04/08 05:54:43;;;;;;;34.20;21.65;;;3.90;99.90;;;;;;5105451;27;20096;-31
2023/04/08 05:57:09;;;;;;;34.75;21.92;;;3.90;99.90;;;;;;5113104;27;20035;-31
2023/04/08 05:59:35;;;;;;;36.22;22.17;;;3.90;99.90;;;;;;5108383;27;20385;-31
2023/04/08 06:02:00;;;;;;;31.05;20.13;;;4.00;99.90;;;;;;5096334;27;20054;-32
2023/04/08 06:04:26;;;;;;;29.88;20.27;;;3.90;99.90;;;;;;5114272;27;20039;-31
2023/04/08 06:06:52;;;;;;;35.58;22.27;;;4.00;99.90;;;;;;5129066;27;20042;-31
2023/04/08 06:09:17;;;;;;;35.58;23.15;;;4.00;99.90;;;;;;5102632;27;20039;-31
2023/04/08 06:11:46;;;;;;;30.90;20.52;;;4.10;99.90;;;;;;5098501;27;20035;-31
2023/04/08 06:14:11;;;;;;;36.60;22.05;;;4.40;99.90;;;;;;5115761;27;20161;-31
2023/04/08 06:16:37;;;;;;;33.58;20.95;;;4.40;99.90;;;;;;5115260;27;20066;-32
2023/04/08 06:19:03;;;;;;;36.03;21.10;;;4.50;99.90;;;;;;5115736;27;20035;-31
2023/04/08 06:21:29;;;;;;;33.58;22.27;;;4.70;99.90;;;;;;5115357;27;20328;-31
2023/04/08 06:23:55;;;;;;;34.03;21.50;;;4.70;99.90;;;;;;5098764;27;20400;-31
2023/04/08 06:26:21;;;;;;;35.13;23.08;;;4.90;99.90;;;;;;5096468;28;20089;-31
2023/04/08 06:28:46;;;;;;;36.65;22.58;;;4.80;99.90;;;;;;5109334;27;20034;-31
2023/04/08 06:31:12;;;;;;;33.72;20.70;;;4.90;99.90;;;;;;5114788;27;20031;-31
2023/04/08 06:33:38;;;;;;;34.47;20.42;;;5.00;99.90;;;;;;5110964;27;20365;-32
2023/04/08 06:36:04;;;;;;;36.22;21.00;;;5.00;99.90;;;;;;5094018;27;20049;-31
2023/04/08 06:38:31;;;;;;;34.38;22.42;;;5.00;99.90;;;;;;5106232;27;20042;-31
2023/04/08 06:41:07;;;;;;;34.17;21.88;;;5.20;99.90;;;;;;5108026;27;20480;-32
2023/04/08 06:43:34;;;;;;;34.88;21.65;;;5.30;99.90;;;;;;5100486;28;20044;-31
2023/04/08 06:46:00;;;;;;;35.30;21.38;;;5.30;99.90;;;;;;5107288;27;20035;-31
2023/04/08 06:48:31;;;;;;;34.45;22.75;;;5.60;99.90;;;;;;5114840;27;20588;-32
2023/04/08 06:50:58;;;;;;;32.17;21.45;;;5.60;99.90;;;;;;5106605;27;20066;-32
2023/04/08 06:53:25;;;;;;;33.17;21.20;;;5.70;99.90;;;;;;5114580;27;20039;-31
2023/04/08 06:55:51;;;;;;;30.65;20.63;;;5.50;99.90;;;;;;5111612;27;20031;-32
2023/04/08 06:58:17;;;;;;;31.65;20.42;;;5.90;99.90;;;;;;5101121;28;20031;-32
2023/04/08 07:00:43;;;;;;;32.63;21.27;;;5.80;99.90;;;;;;5108148;27;20480;-31
2023/04/08 07:03:11;;;;;;;31.98;21.25;;;5.80;99.90;;;;;;5120301;27;20054;-32
2023/04/08 07:05:38;;;;;;;32.45;21.42;;;5.70;99.90;;;;;;5107551;28;20032;-31
2023/04/08 07:08:05;;;;;;;32.70;20.63;;;5.80;99.90;;;;;;5105863;28;20066;-32
2023/04/08 07:10:31;;;;;;;33.45;21.17;;;5.80;99.90;;;;;;5103618;28;20360;-32
2023/04/08 07:12:57;;;;;;;32.80;20.38;;;5.80;99.90;;;;;;5113870;27;20047;-31
2023/04/08 07:15:22;;;;;;;33.35;20.67;;;5.90;99.90;;;;;;5114784;27;20039;-31
2023/04/08 07:17:48;;;;;;;30.23;20.63;;;6.00;99.90;;;;;;5104919;28;20407;-32
2023/04/08 07:20:14;;;;;;;35.72;22.98;;;6.10;99.90;;;;;;5105323;28;20085;-31
2023/04/08 07:22:40;;;;;;;31.20;20.20;;;6.10;99.90;;;;;;5109378;28;20090;-32
2023/04/08 07:25:06;;;;;;;32.83;20.63;;;6.20;99.90;;;;;;5093195;28;20036;-32
2023/04/08 07:27:33;;;;;;;34.17;22.13;;;6.40;99.90;;;;;;5107368;28;20055;-31
2023/04/08 07:30:00;;;;;;;34.00;21.80;;;6.50;99.90;;;;;;5111058;28;20045;-32
2023/04/08 07:32:26;;;;;;;34.53;21.00;;;6.60;99.90;;;;;;5103252;28;20071;-31
2023/04/08 07:34:52;;;;;;;32.45;20.90;;;6.70;99.90;;;;;;5093199;28;20027;-31
2023/04/08 07:37:18;;;;;;;34.25;21.25;;;6.80;99.90;;;;;;5107791;28;20042;-32
2023/04/08 07:39:43;;;;;;;32.55;21.45;;;7.00;99.90;;;;;;5117177;28;20412;-32
2023/04/08 07:42:09;;;;;;;32.20;20.42;;;7.00;99.90;;;;;;5103485;28;20112;-32
2023/04/08 07:44:35;;;;;;;31.48;20.40;;;7.20;99.90;;;;;;5106845;28;20492;-32
2023/04/08 07:47:00;;;;;;;28.17;19.30;;;7.30;99.90;;;;;;5114045;28;20043;-32
2023/04/08 07:49:26;;;;;;;29.23;19.10;;;7.40;99.90;;;;;;5114629;28;20046;-32
2023/04/08 07:51:52;;;;;;;27.40;18.52;;;7.70;99.90;;;;;;5110330;28;20447;-31
2023/04/08 07:54:18;;;;;;;25.92;18.45;;;7.90;99.90;;;;;;5126810;28;20035;-31
2023/04/08 07:56:44;;;;;;;22.30;16.50;;;8.00;99.90;;;;;;5110708;28;20063;-32
2023/04/08 07:59:13;;;;;;;24.85;17.05;;;8.20;99.90;;;;;;5110963;27;20373;-32
2023/04/08 08:01:38;;;;;;;22.73;16.58;;;8.30;99.90;;;;;;5119215;28;20035;-31
2023/04/08 08:04:04;;;;;;;22.33;16.88;;;8.40;99.90;;;;;;5116392;27;20400;-32
2023/04/08 08:06:31;;;;;;;27.23;17.65;;;8.60;99.90;;;;;;5116529;27;20122;-32
2023/04/08 08:08:57;;;;;;;23.15;16.85;;;8.80;99.90;;;;;;5112788;28;20089;-32
2023/04/08 08:11:23;;;;;;;23.02;17.63;;;8.90;99.90;;;;;;5109288;27;20063;-32
2023/04/08 08:13:49;;;;;;;24.05;17.67;;;9.10;99.90;;;;;;5118115;27;20132;-32
2023/04/08 08:16:15;;;;;;;24.45;16.80;;;9.30;99.90;;;;;;5149949;27;20462;-32
2023/04/08 08:18:40;;;;;;;22.77;16.42;;;9.60;99.90;;;;;;5117400;27;20043;-32
2023/04/08 08:21:08;;;;;;;23.58;16.02;;;9.90;99.90;;;;;;5116064;27;20035;-32
2023/04/08 08:23:33;;;;;;;21.63;16.15;;;9.80;99.90;;;;;;5094355;27;20445;-32
2023/04/08 08:26:05;;;;;;;21.55;16.02;;;9.70;99.90;;;;;;5099048;28;20035;-31
2023/04/08 08:28:31;;;;;;;19.75;15.40;;;9.70;99.90;;;;;;5115674;27;20038;-32
2023/04/08 08:30:57;;;;;;;21.90;15.35;;;10.00;99.90;;;;;;5117528;27;20093;-32
2023/04/08 08:33:24;;;;;;;21.83;15.55;;;10.50;99.90;;;;;;5116653;27;20122;-32
2023/04/08 08:35:50;;;;;;;21.48;16.00;;;10.80;99.90;;;;;;5107053;27;20449;-32
2023/04/08 08:38:16;;;;;;;21.05;15.32;;;11.10;99.90;;;;;;5101750;27;20039;-32
2023/04/08 08:40:43;;;;;;;17.42;13.68;;;11.40;99.90;;;;;;5108302;27;20038;-32
2023/04/08 08:43:09;;;;;;;19.40;15.25;;;11.70;99.90;;;;;;5117326;27;20455;-32
2023/04/08 08:45:41;;;;;;;18.73;15.30;;;11.90;99.90;;;;;;5105442;28;20032;-32
2023/04/08 08:48:08;;;;;;;19.25;14.07;;;12.10;99.90;;;;;;5130239;27;20068;-31
2023/04/08 08:50:34;;;;;;;18.30;13.93;;;12.60;99.90;;;;;;5111376;27;20031;-32
2023/04/08 08:53:01;;;;;;;17.10;12.95;;;12.40;99.90;;;;;;5095577;27;20126;-32
2023/04/08 08:55:31;;;;;;;17.02;13.65;;;12.60;99.90;;;;;;5116614;27;20042;-32
2023/04/08 08:57:57;;;;;;;16.20;13.13;;;12.70;99.90;;;;;;5106178;27;20039;-32
2023/04/08 09:00:33;;;;;;;16.80;13.70;;;12.80;99.90;;;;;;5113711;27;20083;-32
2023/04/08 09:03:18;;;;;;;16.05;13.48;;;13.00;99.90;;;;;;5111822;27;20032;-33
2023/04/08 09:06:01;;;;;;;16.17;13.20;;;13.30;99.90;;;;;;5111000;27;20042;-32
2023/04/08 09:08:36;;;;;;;15.18;13.25;;;13.50;99.90;;;;;;5117108;27;20038;-33
2023/04/08 09:11:22;;;;;;;16.25;13.05;;;13.60;99.90;;;;;;5148534;27;20476;-33
2023/04/08 09:13:48;;;;;;;16.35;13.57;;;13.90;99.90;;;;;;5134939;27;20484;-32
2023/04/08 09:16:16;;;;;;;14.57;13.05;;;14.20;99.90;;;;;;5125188;27;20068;-32
2023/04/08 09:18:47;;;;;;;14.85;13.25;;;14.30;99.90;;;;;;5119544;27;20047;-33
2023/04/08 09:21:21;;;;;;;14.30;12.80;;;14.30;99.90;;;;;;5105151;27;20096;-33
2023/04/08 09:23:48;;;;;;;14.20;12.70;;;14.30;99.90;;;;;;5133301;27;20091;-33
2023/04/08 09:26:21;;;;;;;14.73;12.85;;;14.50;99.90;;;;;;5119250;27;20035;-33
2023/04/08 09:29:07;;;;;;;14.25;12.85;;;13.60;99.90;;;;;;5118050;27;20429;-33
2023/04/08 09:31:37;;;;;;;14.95;13.35;;;13.40;99.90;;;;;;5091975;27;20039;-32
2023/04/08 09:34:31;;;;;;;14.45;12.93;;;13.00;99.90;;;;;;5114026;27;20045;-33
2023/04/08 09:36:56;;;;;;;14.68;13.00;;;13.20;99.90;;;;;;5093733;28;20134;-32
2023/04/08 09:39:22;;;;;;;14.05;12.68;;;13.40;99.90;;;;;;5113736;27;20126;-32
2023/04/08 09:41:50;;;;;;;14.38;12.98;;;13.80;99.90;;;;;;5102989;28;20039;-33
2023/04/08 09:44:18;;;;;;;14.85;13.25;;;14.20;99.90;;;;;;5108107;27;20031;-33
2023/04/08 09:46:55;;;;;;;15.45;13.93;;;14.50;99.90;;;;;;5117264;27;20062;-33
2023/04/08 09:49:33;;;;;;;15.15;13.55;;;14.70;99.90;;;;;;5109691;27;20077;-32
2023/04/08 09:52:30;;;;;;;15.48;13.88;;;14.80;99.90;;;;;;5112963;27;20415;-32
2023/04/08 09:55:05;;;;;;;14.82;13.35;;;14.90;99.90;;;;;;5118366;27;20117;-33
2023/04/08 09:57:42;;;;;;;14.80;13.30;;;14.80;99.90;;;;;;5116235;27;20034;-33
2023/04/08 10:00:16;;;;;;;14.57;13.07;;;14.80;99.90;;;;;;5127754;27;20039;-33
2023/04/08 10:02:51;;;;;;;15.15;13.65;;;15.30;99.90;;;;;;5098842;27;20053;-33
2023/04/08 10:05:17;;;;;;;15.18;13.73;;;15.70;99.90;;;;;;5105161;28;20069;-32
2023/04/08 10:07:44;;;;;;;15.18;13.68;;;16.10;99.90;;;;;;5113004;27;20039;-33
2023/04/08 10:10:10;;;;;;;14.18;12.85;;;16.30;99.90;;;;;;5115282;27;20039;-33
2023/04/08 10:12:37;;;;;;;15.40;13.95;;;16.30;99.90;;;;;;5117357;27;20043;-32
2023/04/08 10:15:21;;;;;;;15.10;13.70;;;16.30;99.90;;;;;;5114360;27;20039;-33
2023/04/08 10:17:47;;;;;;;15.95;14.35;;;16.00;99.90;;;;;;5108115;27;20047;-32
2023/04/08 10:20:34;;;;;;;14.93;13.52;;;15.20;99.90;;;;;;5115483;27;20043;-32
2023/04/08 10:23:01;;;;;;;14.48;13.23;;;14.80;99.90;;;;;;5114939;27;20054;-32
2023/04/08 10:25:32;;;;;;;15.50;14.02;;;14.80;99.90;;;;;;5107416;28;20542;-32
2023/04/08 10:28:22;;;;;;;15.27;13.73;;;14.30;99.90;;;;;;5102767;27;20046;-32
2023/04/08 10:30:49;;;;;;;15.32;13.82;;;14.40;99.90;;;;;;5117989;27;20122;-33
2023/04/08 10:33:16;;;;;;;14.88;13.38;;;14.30;99.90;;;;;;5097280;27;20192;-32
2023/04/08 10:36:11;;;;;;;15.98;14.43;;;14.30;99.90;;;;;;5117844;27;20046;-32
2023/04/08 10:38:38;;;;;;;16.10;14.50;;;13.80;99.90;;;;;;5112166;27;20043;-33
2023/04/08 10:41:04;;;;;;;16.40;14.52;;;13.90;99.90;;;;;;5132080;27;20039;-32
2023/04/08 10:43:33;;;;;;;15.60;13.98;;;13.60;99.90;;;;;;5134152;27;20049;-33
2023/04/08 10:46:00;;;;;;;15.20;13.52;;;13.80;99.90;;;;;;5115117;27;20421;-32
2023/04/08 10:48:27;;;;;;;15.88;14.27;;;13.90;99.90;;;;;;5101959;27;20036;-32
2023/04/08 10:50:59;;;;;;;16.13;14.43;;;13.50;99.90;;;;;;5106957;28;20480;-33
2023/04/08 10:53:24;;;;;;;16.33;14.00;;;13.20;99.90;;;;;;5107998;27;20078;-32
2023/04/08 10:55:51;;;;;;;15.43;13.77;;;12.90;99.90;;;;;;5114191;27;20063;-32
2023/04/08 10:58:17;;;;;;;15.75;13.68;;;12.80;99.90;;;;;;5114787;27;20035;-32
2023/04/08 11:00:43;;;;;;;14.85;13.10;;;12.70;99.90;;;;;;5114166;27;20476;-33
2023/04/08 11:03:10;;;;;;;15.02;13.35;;;12.70;99.90;;;;;;5129141;27;20118;-32
2023/04/08 11:05:37;;;;;;;15.52;13.52;;;12.90;99.90;;;;;;5109910;27;20031;-33
2023/04/08 11:08:07;;;;;;;15.57;13.93;;;13.30;99.90;;;;;;5108454;27;20031;-33
2023/04/08 11:10:37;;;;;;;14.50;13.05;;;13.40;99.90;;;;;;5109071;28;20043;-33
2023/04/08 11:13:08;;;;;;;15.00;13.27;;;13.40;99.90;;;;;;5125695;27;20031;-33
2023/04/08 11:15:35;;;;;;;14.50;12.77;;;13.50;99.90;;;;;;5090584;27;20039;-32
2023/04/08 11:18:05;;;;;;;15.20;13.60;;;13.50;99.90;;;;;;5109526;27;20091;-33
2023/04/08 11:20:34;;;;;;;15.10;13.60;;;13.20;99.90;;;;;;5093995;28;20046;-32
2023/04/08 11:23:00;;;;;;;15.55;13.82;;;13.10;99.90;;;;;;5113969;28;20043;-32
2023/04/08 11:25:27;;;;;;;14.98;13.38;;;13.10;99.90;;;;;;5134098;28;20498;-33
2023/04/08 11:27:53;;;;;;;14.05;12.55;;;13.00;99.90;;;;;;5117337;28;20031;-33
2023/04/08 11:30:20;;;;;;;15.20;13.60;;;13.20;99.90;;;;;;5129787;27;20044;-32
2023/04/08 11:32:46;;;;;;;14.32;12.82;;;12.90;99.90;;;;;;5112468;28;20520;-32
2023/04/08 11:35:15;;;;;;;16.80;13.15;;;12.60;99.90;;;;;;5135317;27;20035;-32
2023/04/08 11:37:41;;;;;;;14.35;12.93;;;12.70;99.90;;;;;;5104979;28;20036;-32
2023/04/08 11:40:09;;;;;;;14.18;12.25;;;12.70;99.90;;;;;;5116274;28;20039;-33
2023/04/08 11:42:35;;;;;;;14.40;12.90;;;12.70;99.90;;;;;;5120832;27;20042;-33
2023/04/08 11:45:08;;;;;;;16.17;14.07;;;12.70;99.90;;;;;;5139135;27;20043;-33
2023/04/08 11:47:34;;;;;;;17.63;14.65;;;12.80;99.90;;;;;;5117203;27;20049;-33
2023/04/08 11:50:00;;;;;;;16.00;13.90;;;12.60;99.90;;;;;;5116282;27;20035;-32
2023/04/08 11:52:46;;;;;;;16.20;14.50;;;12.70;99.90;;;;;;5120361;27;20039;-32
2023/04/08 11:55:32;;;;;;;16.63;14.20;;;12.60;99.90;;;;;;5106637;28;20131;-33
2023/04/08 11:58:05;;;;;;;15.00;13.20;;;12.60;99.90;;;;;;5116254;27;20088;-32
2023/04/08 12:00:31;;;;;;;15.43;13.27;;;12.80;99.90;;;;;;5114529;28;20477;-34
2023/04/08 12:02:58;;;;;;;16.63;14.32;;;12.60;99.90;;;;;;5118304;27;20051;-32
2023/04/08 12:05:24;;;;;;;16.52;14.13;;;12.50;99.90;;;;;;5120225;27;20078;-33
2023/04/08 12:07:50;;;;;;;18.50;15.07;;;12.30;99.90;;;;;;5120522;27;20149;-33
2023/04/08 12:10:16;;;;;;;18.30;14.55;;;12.30;99.90;;;;;;5138092;27;20512;-32
2023/04/08 12:12:41;;;;;;;17.38;14.68;;;12.30;99.90;;;;;;5106622;28;20032;-32
2023/04/08 12:15:08;;;;;;;16.85;13.93;;;12.20;99.90;;;;;;5110901;27;20491;-32
2023/04/08 12:17:34;;;;;;;17.83;14.45;;;12.10;99.90;;;;;;5126316;27;20027;-33
2023/04/08 12:20:00;;;;;;;15.43;13.82;;;12.10;99.90;;;;;;5133525;27;20039;-32
2023/04/08 12:22:26;;;;;;;19.40;14.52;;;12.30;99.90;;;;;;5115008;27;20044;-32
2023/04/08 12:24:52;;;;;;;17.48;15.27;;;12.00;99.90;;;;;;5120148;27;20064;-33
2023/04/08 12:27:18;;;;;;;18.92;14.57;;;11.80;99.90;;;;;;5138126;27;20122;-33
2023/04/08 12:29:45;;;;;;;19.45;14.75;;;11.80;99.90;;;;;;5125574;27;20036;-32
2023/04/08 12:32:11;;;;;;;19.40;15.30;;;11.70;99.90;;;;;;5098762;28;20404;-33
2023/04/08 12:34:37;;;;;;;18.50;14.65;;;11.70;99.90;;;;;;5116959;27;20127;-33
2023/04/08 12:37:02;;;;;;;21.73;16.05;;;11.70;99.90;;;;;;5136068;27;20034;-33